createdAt,value
2023-02-25T00:01:44.468Z,18.43
2023-02-25T00:04:16.664Z,18.42
2023-02-25T00:06:46.464Z,18.30
2023-02-25T00:09:14.513Z,18.45
2023-02-25T00:11:43.857Z,18.40
2023-02-25T00:14:11.866Z,18.83
2023-02-25T00:16:39.900Z,18.59
2023-02-25T00:19:07.955Z,18.45
2023-02-25T00:21:35.918Z,18.61
2023-02-25T00:24:15.651Z,18.55
2023-02-25T00:26:46.008Z,18.74
2023-02-25T00:29:15.619Z,18.76
2023-02-25T00:31:43.894Z,18.64
2023-02-25T00:34:12.112Z,18.62
2023-02-25T00:36:40.811Z,18.66
2023-02-25T00:39:09.351Z,18.75
2023-02-25T00:41:37.576Z,18.80
2023-02-25T00:44:07.925Z,18.56
2023-02-25T00:46:36.581Z,18.64
2023-02-25T00:49:04.674Z,18.69
2023-02-25T00:51:34.065Z,18.66
2023-02-25T00:54:02.221Z,18.52
2023-02-25T00:56:30.816Z,18.94
2023-02-25T00:59:00.567Z,18.64
2023-02-25T01:01:33.351Z,18.77
2023-02-25T01:04:02.312Z,18.92
2023-02-25T01:06:31.386Z,18.62
2023-02-25T01:09:00.278Z,18.97
2023-02-25T01:11:30.361Z,18.75
2023-02-25T01:13:59.778Z,18.71
2023-02-25T01:16:31.641Z,18.69
2023-02-25T01:19:01.636Z,18.64
2023-02-25T01:21:31.515Z,18.83
2023-02-25T01:24:02.540Z,18.75
2023-02-25T01:26:32.328Z,18.69
2023-02-25T01:29:00.279Z,18.65
2023-02-25T01:31:30.300Z,18.78
2023-02-25T01:33:59.710Z,18.88
2023-02-25T01:36:28.442Z,18.80
2023-02-25T01:38:58.248Z,18.77
2023-02-25T01:41:27.374Z,18.76
2023-02-25T01:44:07.486Z,18.68
2023-02-25T01:46:37.176Z,19.05
2023-02-25T01:49:09.566Z,18.94
2023-02-25T01:51:38.495Z,18.75
2023-02-25T01:54:12.097Z,18.85
2023-02-25T01:56:43.658Z,18.86
2023-02-25T01:59:12.036Z,18.98
2023-02-25T02:01:42.082Z,18.96
2023-02-25T02:04:14.681Z,18.84
2023-02-25T02:06:45.408Z,18.75
2023-02-25T02:09:20.537Z,18.98
2023-02-25T02:11:48.619Z,18.91
2023-02-25T02:14:19.844Z,18.90
2023-02-25T02:17:16.915Z,18.89
2023-02-25T02:20:11.240Z,18.98
2023-02-25T02:22:49.343Z,18.91
2023-02-25T02:25:43.317Z,18.96
2023-02-25T02:28:42.850Z,19.01
2023-02-25T02:31:25.933Z,19.16
2023-02-25T02:34:06.216Z,19.16
2023-02-25T02:36:45.667Z,19.06
2023-02-25T02:39:20.871Z,19.20
2023-02-25T02:41:59.751Z,19.14
2023-02-25T02:44:31.831Z,19.33
2023-02-25T02:47:05.508Z,19.12
2023-02-25T02:49:41.775Z,18.96
2023-02-25T02:52:15.324Z,19.07
2023-02-25T02:54:50.766Z,19.05
2023-02-25T02:57:22.861Z,19.14
2023-02-25T02:59:56.354Z,19.10
2023-02-25T03:02:32.683Z,19.14
2023-02-25T03:05:06.677Z,19.07
2023-02-25T03:07:42.498Z,19.11
2023-02-25T03:10:17.098Z,19.17
2023-02-25T03:12:45.189Z,19.04
2023-02-25T03:15:14.473Z,18.84
2023-02-25T03:17:48.194Z,18.75
2023-02-25T03:20:22.018Z,19.02
2023-02-25T03:22:52.593Z,18.81
2023-02-25T03:25:24.972Z,18.97
2023-02-25T03:27:56.212Z,18.84
2023-02-25T03:30:33.701Z,18.58
2023-02-25T03:33:10.363Z,18.71
2023-02-25T03:35:41.450Z,18.68
2023-02-25T03:38:15.627Z,18.65
2023-02-25T03:40:44.689Z,18.90
2023-02-25T03:43:17.447Z,18.62
2023-02-25T03:45:46.634Z,18.95
2023-02-25T03:48:19.276Z,18.91
2023-02-25T03:50:52.803Z,18.70
2023-02-25T03:53:21.017Z,19.06
2023-02-25T03:55:53.092Z,18.75
2023-02-25T03:58:21.425Z,18.99
2023-02-25T04:00:56.189Z,18.77
2023-02-25T04:03:27.495Z,18.97
2023-02-25T04:05:55.721Z,18.66
2023-02-25T04:08:23.848Z,19.05
2023-02-25T04:10:52.347Z,18.87
2023-02-25T04:13:20.977Z,18.84
2023-02-25T04:15:50.498Z,18.77
2023-02-25T04:18:18.544Z,18.99
2023-02-25T04:20:47.957Z,18.72
2023-02-25T04:23:16.734Z,18.81
2023-02-25T04:25:45.083Z,18.94
2023-02-25T04:28:13.270Z,18.77
2023-02-25T04:30:41.349Z,18.71
2023-02-25T04:33:11.242Z,18.97
2023-02-25T04:35:39.283Z,18.84
2023-02-25T04:38:09.339Z,18.88
2023-02-25T04:40:38.112Z,18.69
2023-02-25T04:43:06.218Z,18.75
2023-02-25T04:45:34.182Z,18.89
2023-02-25T04:48:02.167Z,18.77
2023-02-25T04:50:30.095Z,18.95
2023-02-25T04:53:00.374Z,18.94
2023-02-25T04:55:30.079Z,19.05
2023-02-25T04:57:58.249Z,18.86
2023-02-25T05:00:28.139Z,18.96
2023-02-25T05:02:58.051Z,18.93
2023-02-25T05:05:26.013Z,19.05
2023-02-25T05:07:54.067Z,19.10
2023-02-25T05:10:22.191Z,18.95
2023-02-25T05:12:51.543Z,18.99
2023-02-25T05:15:19.790Z,19.02
2023-02-25T05:17:47.807Z,19.00
2023-02-25T05:20:15.935Z,19.05
2023-02-25T05:22:44.044Z,19.01
2023-02-25T05:25:12.398Z,18.89
2023-02-25T05:27:40.404Z,19.09
2023-02-25T05:30:11.634Z,19.20
2023-02-25T05:32:40.280Z,19.25
2023-02-25T05:35:10.264Z,19.04
2023-02-25T05:37:40.217Z,19.02
2023-02-25T05:40:10.229Z,19.00
2023-02-25T05:42:38.487Z,18.86
2023-02-25T05:45:07.475Z,19.06
2023-02-25T05:47:37.279Z,19.17
2023-02-25T05:50:05.742Z,18.83
2023-02-25T05:52:33.751Z,19.18
2023-02-25T05:55:02.151Z,18.98
2023-02-25T05:57:30.373Z,19.13
2023-02-25T05:59:58.291Z,18.99
2023-02-25T06:02:26.310Z,18.86
2023-02-25T06:04:56.265Z,19.00
2023-02-25T06:07:24.220Z,18.97
2023-02-25T06:09:52.244Z,19.02
2023-02-25T06:12:20.177Z,18.87
2023-02-25T06:14:48.141Z,18.86
2023-02-25T06:17:16.036Z,18.98
2023-02-25T06:19:43.943Z,18.84
2023-02-25T06:22:13.415Z,19.19
2023-02-25T06:24:41.796Z,19.07
2023-02-25T06:27:09.743Z,19.04
2023-02-25T06:29:41.991Z,19.10
2023-02-25T06:32:10.599Z,19.02
2023-02-25T06:34:38.796Z,18.70
2023-02-25T06:37:07.537Z,18.94
2023-02-25T06:39:36.883Z,18.88
2023-02-25T06:42:05.321Z,18.77
2023-02-25T06:44:33.334Z,18.67
2023-02-25T06:47:01.370Z,18.66
2023-02-25T06:49:30.902Z,18.70
2023-02-25T06:51:58.878Z,18.93
2023-02-25T06:54:27.955Z,18.66
2023-02-25T06:56:57.311Z,18.63
2023-02-25T06:59:25.352Z,18.63
2023-02-25T07:01:53.549Z,18.52
2023-02-25T07:04:21.508Z,18.79
2023-02-25T07:06:49.430Z,18.70
2023-02-25T07:09:17.370Z,18.42
2023-02-25T07:11:45.436Z,18.82
2023-02-25T07:14:16.409Z,18.66
2023-02-25T07:16:44.423Z,18.64
2023-02-25T07:19:15.374Z,18.76
2023-02-25T07:21:44.259Z,18.73
2023-02-25T07:24:12.781Z,18.86
2023-02-25T07:26:40.695Z,18.68
2023-02-25T07:29:08.611Z,18.65
2023-02-25T07:31:38.129Z,18.70
2023-02-25T07:34:06.215Z,18.85
2023-02-25T07:36:35.907Z,18.82
2023-02-25T07:39:04.752Z,18.85
2023-02-25T07:41:32.803Z,18.68
2023-02-25T07:44:04.036Z,18.64
2023-02-25T07:46:32.446Z,18.78
2023-02-25T07:49:02.073Z,18.70
2023-02-25T07:51:30.440Z,18.69
2023-02-25T07:53:59.305Z,18.82
2023-02-25T07:56:29.328Z,18.73
2023-02-25T07:58:57.529Z,18.73
2023-02-25T08:01:27.588Z,18.40
2023-02-25T08:03:58.327Z,18.73
2023-02-25T08:06:28.470Z,18.42
2023-02-25T08:08:56.515Z,18.45
2023-02-25T08:11:26.294Z,18.70
2023-02-25T08:13:54.571Z,18.58
2023-02-25T08:16:23.572Z,18.44
2023-02-25T08:18:53.012Z,18.34
2023-02-25T08:21:23.483Z,18.48
2023-02-25T08:23:53.657Z,18.49
2023-02-25T08:26:23.892Z,18.51
2023-02-25T08:28:52.937Z,18.46
2023-02-25T08:31:22.377Z,18.61
2023-02-25T08:33:52.990Z,18.55
2023-02-25T08:36:23.305Z,18.41
2023-02-25T08:38:53.148Z,18.27
2023-02-25T08:41:23.170Z,18.40
2023-02-25T08:43:54.892Z,18.68
2023-02-25T08:46:24.118Z,18.36
2023-02-25T08:48:53.539Z,18.05
2023-02-25T08:51:23.571Z,18.48
2023-02-25T08:53:53.222Z,18.55
2023-02-25T08:56:21.162Z,18.59
2023-02-25T08:58:49.181Z,18.35
2023-02-25T09:01:18.563Z,18.36
2023-02-25T09:03:52.254Z,18.47
2023-02-25T09:06:21.107Z,18.43
2023-02-25T09:08:49.411Z,18.56
2023-02-25T09:11:19.868Z,18.63
2023-02-25T09:13:47.851Z,18.41
2023-02-25T09:16:17.599Z,18.44
2023-02-25T09:18:46.079Z,18.55
2023-02-25T09:21:15.254Z,18.44
2023-02-25T09:23:43.901Z,18.64
2023-02-25T09:26:12.513Z,18.61
2023-02-25T09:28:41.977Z,18.31
2023-02-25T09:31:10.286Z,18.34
2023-02-25T09:33:39.275Z,18.35
2023-02-25T09:36:08.992Z,18.52
2023-02-25T09:38:37.116Z,18.24
2023-02-25T09:41:17.084Z,18.17
2023-02-25T09:43:47.511Z,18.19
2023-02-25T09:46:19.948Z,18.55
2023-02-25T09:48:56.304Z,18.24
2023-02-25T09:51:32.514Z,18.39
2023-02-25T09:54:12.010Z,18.70
2023-02-25T09:56:40.443Z,18.54
2023-02-25T09:59:15.546Z,18.23
2023-02-25T10:01:48.958Z,18.36
2023-02-25T10:04:26.099Z,18.49
2023-02-25T10:06:56.080Z,18.37
2023-02-25T10:09:35.404Z,18.52
2023-02-25T10:12:15.250Z,18.53
2023-02-25T10:15:01.300Z,18.57
2023-02-25T10:17:43.394Z,18.47
2023-02-25T10:20:35.193Z,18.14
2023-02-25T10:23:13.322Z,18.31
2023-02-25T10:25:45.348Z,18.19
2023-02-25T10:28:17.285Z,18.68
2023-02-25T10:30:54.038Z,18.33
2023-02-25T10:33:25.422Z,18.30
2023-02-25T10:35:58.742Z,18.28
2023-02-25T10:38:26.864Z,18.30
2023-02-25T10:40:57.953Z,18.26
2023-02-25T10:43:27.720Z,18.30
2023-02-25T10:46:02.524Z,18.43
2023-02-25T10:48:32.136Z,18.32
2023-02-25T10:51:07.354Z,18.10
2023-02-25T10:53:35.466Z,18.32
2023-02-25T10:56:03.969Z,17.98
2023-02-25T10:58:36.538Z,18.11
2023-02-25T11:01:10.618Z,17.92
2023-02-25T11:03:47.517Z,18.06
2023-02-25T11:06:23.378Z,18.21
2023-02-25T11:08:52.314Z,18.00
2023-02-25T11:11:22.789Z,17.98
2023-02-25T11:14:02.930Z,18.35
2023-02-25T11:16:36.334Z,18.20
2023-02-25T11:19:15.107Z,18.40
2023-02-25T11:21:43.964Z,18.45
2023-02-25T11:24:16.478Z,18.71
2023-02-25T11:26:47.254Z,18.66
2023-02-25T11:29:19.211Z,19.53
2023-02-25T11:31:52.506Z,19.89
2023-02-25T11:34:24.195Z,21.05
2023-02-25T11:36:52.647Z,22.16
2023-02-25T11:39:23.374Z,23.45
2023-02-25T11:41:53.170Z,24.29
2023-02-25T11:44:24.904Z,24.14
2023-02-25T11:47:00.954Z,23.69
2023-02-25T11:49:48.752Z,23.54
2023-02-25T11:52:26.500Z,22.85
2023-02-25T11:55:08.949Z,22.68
2023-02-25T11:57:46.932Z,22.63
2023-02-25T12:00:25.544Z,22.33
2023-02-25T12:03:13.531Z,22.42
2023-02-25T12:05:57.154Z,22.29
2023-02-25T12:08:46.347Z,21.76
2023-02-25T12:11:47.705Z,21.57
2023-02-25T12:14:59.110Z,21.27
2023-02-25T12:17:51.220Z,21.23
2023-02-25T12:20:56.201Z,20.95
2023-02-25T12:24:08.716Z,20.96
2023-02-25T12:26:50.968Z,20.54
2023-02-25T12:29:39.619Z,20.79
2023-02-25T12:32:24.010Z,20.44
2023-02-25T12:35:26.916Z,20.31
2023-02-25T12:38:25.387Z,20.20
2023-02-25T12:41:16.414Z,20.26
2023-02-25T12:43:50.857Z,20.40
2023-02-25T12:46:43.385Z,20.32
2023-02-25T12:49:52.753Z,20.53
2023-02-25T12:52:35.378Z,21.33
2023-02-25T12:55:37.971Z,22.18
2023-02-25T12:58:27.823Z,22.24
2023-02-25T13:01:30.625Z,21.89
2023-02-25T13:04:15.801Z,20.84
2023-02-25T13:07:15.152Z,20.44
2023-02-25T13:10:02.359Z,20.80
2023-02-25T13:12:49.252Z,20.40
2023-02-25T13:15:21.801Z,20.60
2023-02-25T13:18:06.994Z,20.59
2023-02-25T13:20:54.140Z,20.68
2023-02-25T13:23:35.509Z,21.13
2023-02-25T13:26:18.956Z,21.09
2023-02-25T13:29:04.227Z,23.28
2023-02-25T13:31:43.374Z,23.64
2023-02-25T13:34:24.181Z,23.44
2023-02-25T13:37:18.464Z,23.24
2023-02-25T13:39:57.595Z,23.29
2023-02-25T13:42:42.548Z,22.57
2023-02-25T13:45:44.477Z,22.36
2023-02-25T13:48:31.334Z,22.55
2023-02-25T13:51:25.665Z,21.88
2023-02-25T13:54:07.806Z,21.62
2023-02-25T13:57:00.176Z,21.55
2023-02-25T14:00:07.233Z,21.63
2023-02-25T14:02:57.310Z,21.45
2023-02-25T14:05:47.408Z,21.24
2023-02-25T14:08:29.710Z,20.82
2023-02-25T14:11:12.328Z,21.08
2023-02-25T14:14:03.225Z,20.71
2023-02-25T14:16:44.874Z,20.68
2023-02-25T14:19:36.073Z,20.32
2023-02-25T14:22:22.311Z,19.97
2023-02-25T14:25:02.799Z,20.11
2023-02-25T14:27:42.905Z,19.84
2023-02-25T14:30:22.703Z,19.87
2023-02-25T14:33:13.608Z,19.66
2023-02-25T14:35:57.688Z,19.90
2023-02-25T14:38:38.270Z,20.00
2023-02-25T14:41:22.884Z,19.64
2023-02-25T14:43:54.119Z,19.96
2023-02-25T14:46:32.963Z,19.62
2023-02-25T14:49:08.645Z,19.68
2023-02-25T14:52:12.595Z,20.14
2023-02-25T14:55:06.356Z,20.30
2023-02-25T14:58:09.933Z,20.94
2023-02-25T15:01:11.301Z,20.77
2023-02-25T15:03:59.041Z,21.06
2023-02-25T15:06:46.059Z,21.75
2023-02-25T15:09:32.654Z,21.70
2023-02-25T15:12:17.939Z,21.83
2023-02-25T15:15:22.515Z,22.01
2023-02-25T15:18:14.204Z,21.68
2023-02-25T15:20:45.764Z,22.05
2023-02-25T15:23:16.446Z,22.13
2023-02-25T15:25:50.611Z,22.05
2023-02-25T15:28:44.542Z,21.40
2023-02-25T15:31:28.661Z,21.55
2023-02-25T15:34:33.970Z,21.38
2023-02-25T15:37:28.163Z,21.34
2023-02-25T15:39:57.755Z,21.63
2023-02-25T15:42:46.422Z,21.49
2023-02-25T15:45:38.346Z,21.22
2023-02-25T15:48:35.538Z,21.21
2023-02-25T15:51:06.385Z,21.54
2023-02-25T15:53:41.914Z,21.29
2023-02-25T15:56:57.777Z,20.99
2023-02-25T15:59:43.204Z,21.24
2023-02-25T16:02:35.620Z,20.99
2023-02-25T16:05:06.702Z,21.30
2023-02-25T16:07:38.040Z,20.91
2023-02-25T16:10:17.860Z,21.22
2023-02-25T16:12:49.555Z,21.34
2023-02-25T16:15:26.207Z,20.93
2023-02-25T16:17:58.668Z,20.74
2023-02-25T16:20:30.453Z,21.06
2023-02-25T16:23:00.626Z,20.59
2023-02-25T16:25:39.812Z,20.72
2023-02-25T16:28:19.676Z,20.94
2023-02-25T16:30:55.951Z,20.62
2023-02-25T16:33:31.918Z,21.01
2023-02-25T16:36:07.917Z,20.52
2023-02-25T16:38:44.114Z,20.76
2023-02-25T16:41:13.790Z,20.25
2023-02-25T16:43:46.492Z,20.31
2023-02-25T16:46:17.865Z,20.40
2023-02-25T16:48:52.312Z,20.48
2023-02-25T16:51:25.663Z,20.57
2023-02-25T16:53:57.960Z,20.22
2023-02-25T16:56:28.853Z,20.38
2023-02-25T16:59:07.805Z,20.46
2023-02-25T17:01:37.551Z,20.26
2023-02-25T17:04:17.150Z,20.13
2023-02-25T17:06:45.229Z,20.14
2023-02-25T17:09:27.865Z,20.50
2023-02-25T17:11:58.058Z,20.33
2023-02-25T17:14:26.510Z,20.45
2023-02-25T17:16:54.738Z,20.47
2023-02-25T17:19:25.305Z,19.97
2023-02-25T17:21:56.165Z,19.96
2023-02-25T17:24:28.480Z,20.02
2023-02-25T17:26:56.933Z,20.31
2023-02-25T17:29:34.964Z,19.87
2023-02-25T17:32:14.217Z,19.88
2023-02-25T17:34:44.477Z,19.78
2023-02-25T17:37:14.100Z,19.10
2023-02-25T17:39:44.262Z,18.99
2023-02-25T17:42:31.172Z,18.76
2023-02-25T17:45:00.894Z,18.52
2023-02-25T17:47:31.850Z,18.01
2023-02-25T17:50:14.380Z,18.21
2023-02-25T17:52:42.571Z,18.19
2023-02-25T17:55:24.379Z,18.20
2023-02-25T17:57:54.951Z,17.93
2023-02-25T18:00:26.156Z,17.63
2023-02-25T18:03:13.608Z,18.02
2023-02-25T18:05:51.637Z,17.82
2023-02-25T18:08:22.110Z,17.71
2023-02-25T18:10:55.232Z,17.49
2023-02-25T18:13:28.937Z,17.59
2023-02-25T18:16:17.483Z,17.52
2023-02-25T18:18:51.266Z,17.37
2023-02-25T18:21:21.349Z,17.29
2023-02-25T18:23:51.787Z,17.52
2023-02-25T18:26:23.997Z,17.61
2023-02-25T18:28:53.021Z,17.36
2023-02-25T18:31:22.402Z,17.70
2023-02-25T18:33:50.955Z,17.75
2023-02-25T18:36:25.746Z,17.43
2023-02-25T18:38:57.947Z,17.27
2023-02-25T18:41:25.884Z,17.69
2023-02-25T18:43:54.694Z,17.34
2023-02-25T18:46:23.100Z,17.17
2023-02-25T18:48:51.213Z,17.32
2023-02-25T18:51:19.275Z,17.24
2023-02-25T18:53:49.715Z,17.08
2023-02-25T18:56:18.587Z,17.17
2023-02-25T18:58:46.510Z,17.04
2023-02-25T19:01:21.880Z,17.30
2023-02-25T19:03:51.191Z,17.03
2023-02-25T19:06:19.437Z,17.23
2023-02-25T19:08:47.391Z,17.30
2023-02-25T19:11:21.801Z,17.03
2023-02-25T19:13:50.061Z,17.23
2023-02-25T19:16:19.190Z,17.24
2023-02-25T19:18:48.248Z,16.81
2023-02-25T19:21:20.288Z,16.86
2023-02-25T19:23:51.638Z,16.71
2023-02-25T19:26:22.204Z,16.87
2023-02-25T19:28:50.294Z,16.96
2023-02-25T19:31:18.881Z,16.90
2023-02-25T19:33:47.034Z,16.78
2023-02-25T19:36:14.978Z,16.74
2023-02-25T19:38:42.953Z,16.86
2023-02-25T19:41:13.282Z,16.58
2023-02-25T19:43:42.695Z,16.81
2023-02-25T19:46:11.005Z,16.72
2023-02-25T19:48:39.035Z,16.90
2023-02-25T19:51:08.375Z,16.76
2023-02-25T19:53:37.057Z,16.89
2023-02-25T19:56:07.346Z,16.50
2023-02-25T19:58:35.351Z,16.53
2023-02-25T20:01:06.454Z,16.90
2023-02-25T20:03:34.779Z,16.73
2023-02-25T20:06:07.805Z,16.65
2023-02-25T20:08:37.184Z,16.51
2023-02-25T20:11:09.174Z,16.25
2023-02-25T20:13:38.514Z,16.67
2023-02-25T20:16:09.352Z,16.53
2023-02-25T20:18:37.484Z,16.61
2023-02-25T20:21:05.864Z,16.47
2023-02-25T20:23:33.899Z,16.66
2023-02-25T20:26:06.565Z,16.46
2023-02-25T20:28:34.805Z,16.46
2023-02-25T20:31:08.929Z,16.43
2023-02-25T20:33:37.610Z,16.15
2023-02-25T20:36:18.238Z,16.60
2023-02-25T20:38:58.611Z,16.48
2023-02-25T20:41:27.164Z,16.47
2023-02-25T20:43:55.373Z,16.34
2023-02-25T20:46:28.234Z,16.35
2023-02-25T20:48:57.018Z,16.28
2023-02-25T20:51:25.618Z,16.37
2023-02-25T20:53:54.230Z,16.55
2023-02-25T20:56:24.978Z,16.51
2023-02-25T20:58:53.480Z,16.32
2023-02-25T21:01:21.563Z,16.19
2023-02-25T21:03:51.129Z,16.04
2023-02-25T21:06:19.859Z,16.25
2023-02-25T21:08:48.036Z,16.14
2023-02-25T21:11:16.060Z,16.01
2023-02-25T21:13:45.586Z,16.20
2023-02-25T21:16:14.376Z,16.00
2023-02-25T21:18:43.757Z,16.13
2023-02-25T21:21:14.855Z,16.01
2023-02-25T21:23:43.191Z,16.19
2023-02-25T21:26:12.462Z,15.76
2023-02-25T21:28:42.129Z,16.05
2023-02-25T21:31:12.453Z,16.24
2023-02-25T21:33:41.682Z,16.20
2023-02-25T21:36:11.682Z,16.06
2023-02-25T21:38:41.124Z,15.79
2023-02-25T21:41:10.725Z,16.03
2023-02-25T21:43:39.049Z,15.85
2023-02-25T21:46:10.886Z,15.81
2023-02-25T21:48:39.607Z,15.90
2023-02-25T21:51:08.622Z,15.73
2023-02-25T21:53:36.622Z,15.90
2023-02-25T21:56:12.422Z,15.76
2023-02-25T21:58:40.817Z,16.06
2023-02-25T22:01:13.965Z,15.94
2023-02-25T22:03:42.013Z,15.57
2023-02-25T22:06:10.530Z,15.93
2023-02-25T22:08:39.579Z,15.81
2023-02-25T22:11:14.193Z,15.96
2023-02-25T22:13:43.085Z,15.86
2023-02-25T22:16:12.035Z,15.50
2023-02-25T22:18:40.302Z,15.61
2023-02-25T22:21:11.731Z,15.69
2023-02-25T22:23:40.765Z,15.45
2023-02-25T22:26:10.010Z,15.87
2023-02-25T22:28:39.961Z,15.84
2023-02-25T22:31:11.242Z,15.45
2023-02-25T22:33:39.793Z,15.88
2023-02-25T22:36:09.076Z,15.76
2023-02-25T22:38:39.573Z,15.68
2023-02-25T22:41:13.464Z,15.41
2023-02-25T22:43:42.841Z,15.60
2023-02-25T22:46:13.019Z,15.83
2023-02-25T22:48:42.761Z,15.88
2023-02-25T22:51:11.839Z,15.92
2023-02-25T22:53:40.983Z,15.76
2023-02-25T22:56:11.339Z,15.68
2023-02-25T22:58:40.690Z,15.95
2023-02-25T23:01:10.616Z,15.81
2023-02-25T23:03:39.535Z,15.98
2023-02-25T23:06:08.333Z,15.84
2023-02-25T23:08:36.658Z,15.60
2023-02-25T23:11:13.265Z,15.88
2023-02-25T23:13:46.075Z,15.67
2023-02-25T23:16:16.722Z,15.72
2023-02-25T23:18:45.076Z,16.04
2023-02-25T23:21:18.809Z,16.09
2023-02-25T23:23:48.215Z,16.11
2023-02-25T23:26:18.542Z,15.93
2023-02-25T23:28:47.346Z,16.05
2023-02-25T23:31:25.113Z,15.76
2023-02-25T23:33:56.088Z,16.12
2023-02-25T23:36:24.730Z,16.02
2023-02-25T23:38:54.451Z,15.97
2023-02-25T23:41:22.596Z,16.09
2023-02-25T23:43:53.201Z,15.91
2023-02-25T23:46:23.388Z,16.29
2023-02-25T23:48:55.545Z,16.04
2023-02-25T23:51:23.960Z,16.18
2023-02-25T23:53:54.642Z,16.29
2023-02-25T23:56:23.885Z,16.11
2023-02-25T23:58:53.746Z,16.34
